Time;durP1;ratioP1;P1;durP2;ratioP2;P2;SDS_P1;SDS_P2;PMS_P1;PMS_P2;Temp;Humidity;BMP_temperature;BMP_pressure;BME280_temperature;BME280_humidity;BME280_pressure;Samples;Min_cycle;Max_cycle;Signal;HPM_P1;HPM_P2
2022/12/03 00:01:55;;;;;;;29.20;15.98;;;4.00;99.90;;;;;;5042889;28;20104;-70
2022/12/03 00:04:21;;;;;;;26.52;15.88;;;4.00;99.90;;;;;;5059593;28;20025;-71
2022/12/03 00:06:47;;;;;;;26.88;15.50;;;3.80;99.90;;;;;;5042644;28;20045;-70
2022/12/03 00:09:13;;;;;;;26.75;15.55;;;3.80;99.90;;;;;;5059352;28;20032;-71
2022/12/03 00:11:39;;;;;;;26.35;15.35;;;3.90;99.90;;;;;;5059892;28;20065;-70
2022/12/03 00:14:05;;;;;;;26.95;15.23;;;3.80;99.90;;;;;;5059341;28;20029;-71
2022/12/03 00:16:31;;;;;;;26.52;14.80;;;3.80;99.90;;;;;;5060394;28;20040;-71
2022/12/03 00:18:56;;;;;;;26.85;15.60;;;3.60;99.90;;;;;;5059734;28;20029;-71
2022/12/03 00:21:22;;;;;;;29.48;16.52;;;3.60;99.90;;;;;;5059051;28;20115;-72
2022/12/03 00:23:48;;;;;;;27.63;15.68;;;3.70;99.90;;;;;;5059215;28;20033;-71
2022/12/03 00:26:14;;;;;;;26.52;15.55;;;3.80;99.90;;;;;;5041449;28;20441;-71
2022/12/03 00:28:40;;;;;;;26.25;15.27;;;3.70;99.90;;;;;;5060206;28;20053;-71
2022/12/03 00:31:05;;;;;;;27.73;16.20;;;3.60;99.90;;;;;;5059583;28;20051;-71
2022/12/03 00:33:31;;;;;;;25.17;14.82;;;3.50;99.90;;;;;;5026143;28;20449;-71
2022/12/03 00:35:57;;;;;;;27.50;16.08;;;3.60;99.90;;;;;;5058959;28;20033;-71
2022/12/03 00:38:23;;;;;;;29.38;16.33;;;3.60;99.90;;;;;;5058643;28;20420;-71
2022/12/03 00:40:48;;;;;;;26.40;15.48;;;3.70;99.90;;;;;;5058782;28;20061;-72
2022/12/03 00:43:14;;;;;;;27.00;15.15;;;3.70;99.90;;;;;;5059541;28;20223;-71
2022/12/03 00:45:40;;;;;;;26.25;14.65;;;3.70;99.90;;;;;;5058622;28;20029;-72
2022/12/03 00:48:06;;;;;;;27.02;15.85;;;3.80;99.90;;;;;;5059200;28;20033;-71
2022/12/03 00:50:32;;;;;;;23.73;14.68;;;3.80;99.90;;;;;;5058637;28;20407;-71
2022/12/03 00:52:58;;;;;;;25.80;15.48;;;3.80;99.90;;;;;;5042029;28;20182;-71
2022/12/03 00:55:23;;;;;;;24.38;15.25;;;3.70;99.90;;;;;;5058629;28;20067;-72
2022/12/03 00:57:49;;;;;;;26.10;15.73;;;3.90;99.90;;;;;;5059296;28;20025;-69
2022/12/03 01:00:15;;;;;;;27.63;16.33;;;4.00;99.90;;;;;;5059447;28;20419;-70
2022/12/03 01:02:41;;;;;;;28.38;16.50;;;4.00;99.90;;;;;;5059155;28;20029;-71
2022/12/03 01:05:07;;;;;;;27.08;16.05;;;4.10;99.90;;;;;;5058398;28;20041;-70
2022/12/03 01:07:34;;;;;;;27.50;16.10;;;3.90;99.90;;;;;;5059393;28;20029;-70
2022/12/03 01:10:02;;;;;;;29.13;16.00;;;3.80;99.90;;;;;;5058434;28;20099;-70
2022/12/03 01:12:28;;;;;;;29.70;16.40;;;4.00;99.90;;;;;;5058556;28;20021;-70
2022/12/03 01:14:54;;;;;;;27.92;16.40;;;4.10;99.90;;;;;;5058871;28;20115;-71
2022/12/03 01:17:20;;;;;;;25.63;15.20;;;4.10;99.90;;;;;;5058005;28;20029;-71
2022/12/03 01:19:46;;;;;;;25.90;15.75;;;4.10;99.90;;;;;;5042297;28;20033;-70
2022/12/03 01:22:11;;;;;;;29.08;15.75;;;4.00;99.90;;;;;;5058257;28;20040;-70
2022/12/03 01:24:37;;;;;;;27.17;15.93;;;4.00;99.90;;;;;;5058229;28;20123;-70
2022/12/03 01:27:03;;;;;;;27.65;15.43;;;4.00;99.90;;;;;;5057769;28;20431;-70
2022/12/03 01:29:29;;;;;;;26.83;15.55;;;4.00;99.90;;;;;;5041118;28;20044;-71
2022/12/03 01:34:39;;;;;;;27.17;15.68;;;4.00;99.90;;;;;;5058516;28;20033;-69
2022/12/03 01:37:04;;;;;;;28.35;15.75;;;3.80;99.90;;;;;;5058992;28;20037;-71
2022/12/03 01:39:30;;;;;;;26.98;15.65;;;3.70;99.90;;;;;;5058269;28;20032;-71
2022/12/03 01:41:57;;;;;;;27.75;16.15;;;3.60;99.90;;;;;;5057638;28;20033;-71
2022/12/03 01:44:27;;;;;;;27.88;16.65;;;3.60;99.90;;;;;;5058340;28;20435;-71
2022/12/03 01:46:54;;;;;;;26.92;15.43;;;3.70;99.90;;;;;;5057836;28;20297;-71
2022/12/03 01:49:38;;;;;;;27.20;15.15;;;3.70;99.90;;;;;;5058748;28;20029;-70
2022/12/03 01:52:04;;;;;;;26.70;14.85;;;3.60;99.90;;;;;;5058906;28;20043;-71
2022/12/03 01:54:36;;;;;;;27.92;15.88;;;3.60;99.90;;;;;;5057814;28;20091;-71
2022/12/03 01:57:03;;;;;;;26.42;16.17;;;3.60;99.90;;;;;;5058009;28;20021;-70
2022/12/03 01:59:37;;;;;;;27.52;16.27;;;3.70;99.90;;;;;;5057233;28;20343;-70
2022/12/03 02:02:18;;;;;;;26.85;15.60;;;3.70;99.90;;;;;;5057816;28;20037;-70
2022/12/03 02:04:44;;;;;;;30.67;16.35;;;3.70;99.90;;;;;;5058232;28;20296;-70
2022/12/03 02:07:27;;;;;;;27.92;16.08;;;3.90;99.90;;;;;;5057631;28;20124;-70
2022/12/03 02:09:55;;;;;;;26.33;15.18;;;3.80;99.90;;;;;;5057100;28;20040;-70
2022/12/03 02:12:44;;;;;;;30.05;16.42;;;3.70;99.90;;;;;;5040586;28;20033;-70
2022/12/03 02:15:11;;;;;;;26.58;15.98;;;3.80;99.90;;;;;;5058226;28;20048;-70
2022/12/03 02:17:37;;;;;;;29.75;16.17;;;3.80;99.90;;;;;;5024074;28;20112;-71
2022/12/03 02:20:06;;;;;;;26.17;15.93;;;3.70;99.90;;;;;;5057706;28;20041;-70
2022/12/03 02:23:03;;;;;;;27.85;16.13;;;3.70;99.90;;;;;;5040817;28;20036;-71
2022/12/03 02:25:33;;;;;;;26.90;15.68;;;3.80;99.90;;;;;;5057632;28;20331;-71
2022/12/03 02:28:00;;;;;;;29.15;16.67;;;3.80;99.90;;;;;;5056806;28;20029;-71
2022/12/03 02:30:28;;;;;;;29.25;16.77;;;4.00;99.90;;;;;;5057981;28;20123;-71
2022/12/03 02:32:55;;;;;;;27.48;16.15;;;4.10;99.90;;;;;;5056947;28;20036;-71
2022/12/03 02:35:27;;;;;;;29.58;16.90;;;3.90;99.90;;;;;;5056560;28;20083;-70
2022/12/03 02:37:57;;;;;;;25.98;16.02;;;3.80;99.90;;;;;;5057585;28;20108;-70
2022/12/03 02:40:27;;;;;;;27.15;16.00;;;3.80;99.90;;;;;;5056847;28;20040;-71
2022/12/03 02:42:57;;;;;;;27.17;16.15;;;3.80;99.90;;;;;;5057275;28;20029;-71
2022/12/03 02:45:30;;;;;;;25.67;15.10;;;3.80;99.90;;;;;;5058200;28;20373;-70
2022/12/03 02:48:04;;;;;;;27.10;15.32;;;4.00;99.90;;;;;;5057115;28;20051;-70
2022/12/03 02:50:36;;;;;;;29.70;16.27;;;4.00;99.90;;;;;;5056960;28;20138;-71
2022/12/03 02:53:06;;;;;;;29.10;15.50;;;4.00;99.90;;;;;;5058096;28;20040;-71
2022/12/03 02:55:34;;;;;;;29.40;16.75;;;4.10;99.90;;;;;;5057669;28;20300;-70
2022/12/03 02:58:03;;;;;;;26.58;15.77;;;4.00;99.90;;;;;;5057130;28;20033;-70
2022/12/03 03:00:29;;;;;;;31.70;17.20;;;3.80;99.90;;;;;;5057185;28;20033;-71
2022/12/03 03:02:55;;;;;;;31.20;16.77;;;3.90;99.90;;;;;;5057359;28;20029;-71
2022/12/03 03:05:22;;;;;;;30.35;16.58;;;3.90;99.90;;;;;;5056572;28;20052;-70
2022/12/03 03:07:50;;;;;;;27.58;15.85;;;4.00;99.90;;;;;;5057238;28;20090;-71
2022/12/03 03:10:19;;;;;;;27.25;15.98;;;4.20;99.90;;;;;;5056995;28;20101;-71
2022/12/03 03:12:47;;;;;;;26.92;14.85;;;4.00;99.90;;;;;;5057272;28;20274;-70
2022/12/03 03:15:14;;;;;;;26.40;16.27;;;3.90;99.90;;;;;;5057413;28;20029;-70
2022/12/03 03:17:41;;;;;;;29.38;17.10;;;3.80;99.90;;;;;;5056001;28;20063;-70
2022/12/03 03:20:09;;;;;;;28.77;16.33;;;3.80;99.90;;;;;;5056198;28;20163;-70
2022/12/03 03:22:41;;;;;;;27.17;15.85;;;3.80;99.90;;;;;;5057219;28;20037;-71
2022/12/03 03:25:15;;;;;;;31.58;17.27;;;3.80;99.90;;;;;;5056090;28;20051;-71
2022/12/03 03:27:42;;;;;;;29.00;15.93;;;3.70;99.90;;;;;;5056054;28;20033;-71
2022/12/03 03:30:09;;;;;;;27.98;16.20;;;3.80;99.90;;;;;;5056832;28;20047;-71
2022/12/03 03:32:37;;;;;;;28.50;16.23;;;3.70;99.90;;;;;;5057126;28;20339;-71
2022/12/03 03:35:03;;;;;;;29.55;17.25;;;3.70;99.90;;;;;;5056765;28;20091;-71
2022/12/03 03:37:29;;;;;;;30.48;16.27;;;3.80;99.90;;;;;;5057009;28;20025;-71
2022/12/03 03:39:55;;;;;;;29.67;17.15;;;3.80;99.90;;;;;;5039676;28;20409;-70
2022/12/03 03:42:22;;;;;;;29.10;17.58;;;4.00;99.90;;;;;;5055951;28;20041;-70
2022/12/03 03:44:48;;;;;;;31.30;17.70;;;4.00;99.90;;;;;;5039317;28;20407;-71
2022/12/03 03:47:15;;;;;;;30.73;17.67;;;4.00;99.90;;;;;;5055892;28;20316;-71
2022/12/03 03:49:41;;;;;;;27.70;16.13;;;4.00;99.90;;;;;;5055904;28;20396;-68
2022/12/03 03:52:10;;;;;;;28.73;16.55;;;4.10;99.90;;;;;;5055876;28;20044;-69
2022/12/03 03:54:37;;;;;;;29.38;17.40;;;4.00;99.90;;;;;;5039526;28;20082;-71
2022/12/03 03:57:03;;;;;;;27.75;15.93;;;3.80;99.90;;;;;;5055788;28;20041;-70
2022/12/03 03:59:29;;;;;;;32.95;17.75;;;3.70;99.90;;;;;;5056774;28;20059;-71
2022/12/03 04:01:55;;;;;;;31.70;17.80;;;3.80;99.90;;;;;;5058154;28;20100;-72
2022/12/03 04:04:25;;;;;;;33.47;17.73;;;3.90;99.90;;;;;;5059579;28;20103;-71
2022/12/03 04:06:51;;;;;;;31.50;17.27;;;4.00;99.90;;;;;;5043724;28;20054;-69
2022/12/03 04:09:17;;;;;;;31.05;16.42;;;4.10;99.90;;;;;;5060301;28;20028;-70
2022/12/03 04:14:27;;;;;;;32.78;18.42;;;3.90;99.90;;;;;;5060000;28;20044;-70
2022/12/03 04:16:53;;;;;;;31.33;17.92;;;4.00;99.90;;;;;;5059923;28;20029;-70
2022/12/03 04:19:19;;;;;;;32.80;18.45;;;4.10;99.90;;;;;;5059969;28;20033;-70
2022/12/03 04:24:29;;;;;;;34.53;18.35;;;4.10;99.90;;;;;;5059172;28;20041;-70
2022/12/03 04:29:39;;;;;;;33.17;18.52;;;4.00;99.90;;;;;;5059809;28;20037;-70
2022/12/03 04:37:34;;;;;;;35.88;19.25;;;3.80;99.90;;;;;;5058910;28;20025;-70
2022/12/03 04:39:59;;;;;;;31.75;18.15;;;3.90;99.90;;;;;;5059894;28;20036;-69
2022/12/03 04:42:25;;;;;;;36.05;19.60;;;3.90;99.90;;;;;;5043080;28;20052;-70
2022/12/03 04:44:51;;;;;;;38.25;20.60;;;4.10;99.90;;;;;;5060327;28;20098;-70
2022/12/03 04:47:19;;;;;;;36.20;19.90;;;4.10;99.90;;;;;;5042000;28;20033;-72
2022/12/03 04:49:47;;;;;;;34.20;18.88;;;4.10;99.90;;;;;;5059895;28;20040;-70
2022/12/03 04:52:16;;;;;;;36.13;20.48;;;4.00;99.90;;;;;;5058733;28;20036;-70
2022/12/03 04:54:42;;;;;;;37.08;20.13;;;3.90;99.90;;;;;;5059477;28;20040;-69
2022/12/03 04:57:08;;;;;;;36.67;20.13;;;3.90;99.90;;;;;;5059282;28;20464;-70
2022/12/03 04:59:34;;;;;;;34.53;20.13;;;3.90;99.90;;;;;;5059557;28;20293;-70
2022/12/03 05:02:01;;;;;;;38.85;21.55;;;3.90;99.90;;;;;;5041819;28;20067;-69
2022/12/03 05:04:27;;;;;;;34.55;19.75;;;3.90;99.90;;;;;;5058375;28;20116;-70
2022/12/03 05:06:53;;;;;;;38.70;20.27;;;3.80;99.90;;;;;;5058850;28;20127;-70
2022/12/03 05:09:19;;;;;;;38.35;20.50;;;4.00;99.90;;;;;;5058259;28;20090;-70
2022/12/03 05:11:44;;;;;;;39.13;21.10;;;3.90;99.90;;;;;;5041683;28;20075;-70
2022/12/03 05:14:10;;;;;;;36.83;20.48;;;4.00;99.90;;;;;;5057964;28;20052;-70
2022/12/03 05:16:38;;;;;;;36.78;19.60;;;3.90;99.90;;;;;;5058008;28;20032;-70
2022/12/03 05:19:05;;;;;;;39.15;20.95;;;4.10;99.90;;;;;;5058870;28;20035;-70
2022/12/03 05:21:31;;;;;;;42.80;21.27;;;4.10;99.90;;;;;;5059443;28;20032;-70
2022/12/03 05:23:57;;;;;;;44.03;22.67;;;4.20;99.90;;;;;;5058062;28;20367;-70
2022/12/03 05:26:22;;;;;;;40.90;20.27;;;4.20;99.90;;;;;;5058650;28;20087;-70
2022/12/03 05:28:48;;;;;;;38.90;21.15;;;4.20;99.90;;;;;;5058754;28;20282;-70
2022/12/03 05:31:14;;;;;;;37.85;20.48;;;4.10;99.90;;;;;;5041373;28;20041;-70
2022/12/03 05:33:40;;;;;;;40.45;21.10;;;4.10;99.90;;;;;;5058517;28;20032;-70
2022/12/03 05:36:06;;;;;;;42.15;22.98;;;4.10;99.90;;;;;;5059030;28;20033;-70
2022/12/03 05:38:32;;;;;;;38.00;21.58;;;4.10;99.90;;;;;;5041366;28;20328;-70
2022/12/03 05:40:58;;;;;;;35.78;21.13;;;4.00;99.90;;;;;;5058923;28;20091;-70
2022/12/03 05:43:24;;;;;;;38.85;20.27;;;4.10;99.90;;;;;;5057679;28;20436;-69
2022/12/03 05:45:50;;;;;;;41.85;22.50;;;4.00;99.90;;;;;;5058266;28;20045;-70
2022/12/03 05:48:16;;;;;;;37.70;21.10;;;4.00;99.90;;;;;;5040975;28;20419;-69
2022/12/03 05:50:43;;;;;;;36.80;20.42;;;4.00;99.90;;;;;;5057507;28;20029;-70
2022/12/03 05:53:13;;;;;;;37.88;21.25;;;4.00;99.90;;;;;;5058145;28;20048;-70
2022/12/03 05:55:39;;;;;;;42.00;21.80;;;3.90;99.90;;;;;;5057367;28;20117;-70
2022/12/03 05:58:05;;;;;;;41.10;21.45;;;3.80;99.90;;;;;;5040643;28;20124;-69
2022/12/03 06:00:36;;;;;;;40.55;21.63;;;3.90;99.90;;;;;;5058064;28;20033;-69
2022/12/03 06:03:06;;;;;;;36.80;21.85;;;4.00;99.90;;;;;;5057888;28;20416;-71
2022/12/03 06:05:32;;;;;;;40.08;21.30;;;4.00;99.90;;;;;;5024050;28;20056;-70
2022/12/03 06:07:58;;;;;;;40.50;21.85;;;4.00;99.90;;;;;;5057318;28;20025;-70
2022/12/03 06:10:25;;;;;;;38.97;21.67;;;3.90;99.90;;;;;;5058362;28;20075;-70
2022/12/03 06:12:52;;;;;;;40.53;22.10;;;3.80;99.90;;;;;;5041250;28;20052;-70
2022/12/03 06:15:18;;;;;;;40.05;21.77;;;4.00;99.90;;;;;;5058460;28;20025;-70
2022/12/03 06:17:45;;;;;;;41.95;21.92;;;4.00;99.90;;;;;;5058025;28;20035;-70
2022/12/03 06:20:17;;;;;;;42.47;22.08;;;4.10;99.90;;;;;;5057787;28;20412;-70
2022/12/03 06:22:43;;;;;;;39.15;21.08;;;4.10;99.90;;;;;;5040341;28;20029;-70
2022/12/03 06:25:09;;;;;;;42.92;22.98;;;4.00;99.90;;;;;;5056224;28;20036;-70
2022/12/03 06:27:35;;;;;;;41.30;21.75;;;3.90;99.90;;;;;;5057078;28;20033;-70
2022/12/03 06:30:01;;;;;;;40.47;21.33;;;3.90;99.90;;;;;;5056952;28;20051;-71
2022/12/03 06:32:27;;;;;;;41.17;22.10;;;3.90;99.90;;;;;;5058393;28;20120;-70
2022/12/03 06:34:53;;;;;;;42.30;22.48;;;4.10;99.90;;;;;;5057629;28;20412;-71
2022/12/03 06:37:19;;;;;;;40.88;22.35;;;4.00;99.90;;;;;;5057573;28;20031;-70
2022/12/03 06:39:44;;;;;;;41.33;22.63;;;4.00;99.90;;;;;;5057712;28;20078;-71
2022/12/03 06:42:10;;;;;;;41.67;21.65;;;4.00;99.90;;;;;;5040807;28;20036;-70
2022/12/03 06:44:36;;;;;;;42.20;22.20;;;4.00;99.90;;;;;;5007139;28;20057;-71
2022/12/03 06:47:02;;;;;;;39.60;21.88;;;4.10;99.90;;;;;;5057267;28;20033;-71
2022/12/03 06:49:27;;;;;;;39.58;22.00;;;4.00;99.90;;;;;;5056641;28;20303;-71
2022/12/03 06:51:54;;;;;;;42.45;22.42;;;4.00;99.90;;;;;;5057660;28;20412;-69
2022/12/03 06:54:20;;;;;;;41.28;22.10;;;4.00;99.90;;;;;;5040132;28;20036;-69
2022/12/03 06:56:46;;;;;;;41.22;20.98;;;4.00;99.90;;;;;;5040440;28;20029;-70
2022/12/03 06:59:12;;;;;;;43.13;22.65;;;3.90;99.90;;;;;;5039934;28;20040;-69
2022/12/03 07:01:38;;;;;;;43.72;22.25;;;3.80;99.90;;;;;;5056487;28;20037;-70
2022/12/03 07:04:04;;;;;;;42.42;23.02;;;3.90;99.90;;;;;;5056330;28;20427;-71
2022/12/03 07:06:30;;;;;;;45.63;22.38;;;3.90;99.90;;;;;;5056400;28;20428;-70
2022/12/03 07:08:55;;;;;;;38.95;20.77;;;3.90;99.90;;;;;;5040255;28;20305;-68
2022/12/03 07:11:30;;;;;;;40.75;21.73;;;3.70;99.90;;;;;;5056774;28;20052;-71
2022/12/03 07:14:00;;;;;;;42.10;22.02;;;3.70;99.90;;;;;;5041494;28;20048;-70
2022/12/03 07:16:27;;;;;;;45.35;22.52;;;3.70;99.90;;;;;;5056847;28;20028;-71
2022/12/03 07:18:54;;;;;;;41.47;22.08;;;3.70;99.90;;;;;;5056947;28;20021;-71
2022/12/03 07:21:21;;;;;;;45.25;22.80;;;3.80;99.90;;;;;;5056212;28;20045;-70
2022/12/03 07:23:47;;;;;;;44.30;22.55;;;3.80;99.90;;;;;;5039517;28;20124;-70
2022/12/03 07:26:12;;;;;;;46.78;23.23;;;3.90;99.90;;;;;;5056758;28;20024;-69
2022/12/03 07:28:38;;;;;;;43.10;23.75;;;4.00;99.90;;;;;;5055930;28;20036;-70
2022/12/03 07:31:04;;;;;;;40.75;21.95;;;4.10;99.90;;;;;;5057037;28;20044;-71
2022/12/03 07:33:30;;;;;;;44.42;23.50;;;4.20;99.90;;;;;;5023342;28;20037;-70
2022/12/03 07:35:56;;;;;;;44.55;23.13;;;4.00;99.90;;;;;;5057442;28;20397;-71
2022/12/03 07:38:23;;;;;;;41.70;22.23;;;3.80;99.90;;;;;;5059964;28;20033;-74
2022/12/03 07:40:49;;;;;;;42.88;23.52;;;3.90;99.90;;;;;;5061589;28;20029;-71
2022/12/03 07:43:15;;;;;;;47.25;23.85;;;3.90;99.90;;;;;;5043355;28;20032;-68
2022/12/03 07:45:41;;;;;;;45.30;23.05;;;3.90;99.90;;;;;;5059508;28;20088;-68
2022/12/03 07:48:06;;;;;;;41.40;23.17;;;3.90;99.90;;;;;;5042876;28;20037;-69
2022/12/03 07:50:33;;;;;;;45.45;23.05;;;4.00;99.90;;;;;;5010604;28;20044;-69
2022/12/03 07:52:59;;;;;;;44.47;23.10;;;4.10;99.90;;;;;;5060572;28;20029;-71
2022/12/03 07:55:25;;;;;;;49.40;24.92;;;4.10;99.90;;;;;;5060584;28;20106;-69
2022/12/03 07:57:51;;;;;;;43.28;23.77;;;4.20;99.90;;;;;;5060339;28;20021;-69
2022/12/03 08:00:18;;;;;;;43.00;23.92;;;4.20;99.90;;;;;;5060135;28;20025;-69
2022/12/03 08:02:44;;;;;;;42.97;22.33;;;4.10;99.90;;;;;;5059585;28;20388;-70
2022/12/03 08:05:11;;;;;;;43.78;22.30;;;4.20;99.90;;;;;;5042512;28;20135;-71
2022/12/03 08:07:36;;;;;;;42.67;23.27;;;4.00;99.90;;;;;;5060096;28;20262;-73
2022/12/03 08:10:17;;;;;;;43.03;22.55;;;3.80;99.90;;;;;;5023117;28;20479;-70
2022/12/03 08:12:43;;;;;;;44.55;22.25;;;3.90;99.90;;;;;;5059398;28;20033;-70
2022/12/03 08:15:15;;;;;;;42.72;22.45;;;3.90;99.90;;;;;;5042521;28;20040;-71
2022/12/03 08:17:42;;;;;;;44.70;22.58;;;3.80;99.90;;;;;;5059873;28;20044;-71
2022/12/03 08:20:23;;;;;;;42.83;22.77;;;3.80;99.90;;;;;;5058896;28;20044;-69
2022/12/03 08:22:50;;;;;;;40.42;22.25;;;3.80;99.90;;;;;;5059952;28;20359;-71
2022/12/03 08:25:28;;;;;;;40.67;21.27;;;3.80;99.90;;;;;;5060858;28;20312;-69
2022/12/03 08:28:14;;;;;;;41.10;22.00;;;3.90;99.90;;;;;;5060142;28;20281;-68
2022/12/03 08:30:42;;;;;;;42.47;23.17;;;3.80;99.90;;;;;;5058353;28;20037;-70
2022/12/03 08:33:34;;;;;;;40.47;21.50;;;3.80;99.90;;;;;;5059624;28;20029;-70
2022/12/03 08:36:07;;;;;;;40.83;21.73;;;4.00;99.90;;;;;;5059729;28;20116;-70
2022/12/03 08:38:32;;;;;;;41.05;21.67;;;3.90;99.90;;;;;;5058733;28;20029;-70
2022/12/03 08:40:58;;;;;;;42.38;22.52;;;3.90;99.90;;;;;;5059471;28;20112;-69
2022/12/03 08:43:26;;;;;;;41.08;22.08;;;4.10;99.90;;;;;;5058889;28;20033;-70
2022/12/03 08:45:56;;;;;;;42.88;22.98;;;4.10;99.90;;;;;;5058629;28;20032;-70
2022/12/03 08:48:35;;;;;;;43.78;22.38;;;4.10;99.90;;;;;;5041220;28;20131;-69
2022/12/03 08:51:10;;;;;;;42.10;21.92;;;4.20;99.90;;;;;;5058400;28;20021;-70
2022/12/03 08:53:44;;;;;;;43.75;23.00;;;4.40;99.90;;;;;;5059365;28;20024;-70
2022/12/03 08:56:19;;;;;;;43.92;23.52;;;4.40;99.90;;;;;;5058945;28;20033;-70
2022/12/03 08:58:57;;;;;;;38.00;21.30;;;4.40;99.90;;;;;;5058396;28;20025;-70
2022/12/03 09:01:44;;;;;;;45.20;23.88;;;4.50;99.90;;;;;;5059408;28;20051;-70
2022/12/03 09:04:39;;;;;;;44.85;22.60;;;4.50;99.90;;;;;;5058127;28;20335;-70
2022/12/03 09:07:05;;;;;;;43.03;23.42;;;4.30;99.90;;;;;;5058040;28;20052;-70
2022/12/03 09:09:32;;;;;;;45.05;23.63;;;4.50;99.90;;;;;;5058205;28;20033;-71
2022/12/03 09:12:00;;;;;;;41.97;22.58;;;4.50;99.90;;;;;;5058106;28;20045;-70
2022/12/03 09:14:27;;;;;;;39.78;22.75;;;4.70;99.90;;;;;;5059346;28;20025;-70
2022/12/03 09:16:54;;;;;;;42.83;22.60;;;4.70;99.90;;;;;;5041580;28;20037;-71
2022/12/03 09:19:25;;;;;;;45.45;22.98;;;4.70;99.90;;;;;;5058776;28;20367;-71
2022/12/03 09:21:52;;;;;;;45.38;23.63;;;4.50;99.90;;;;;;5058683;28;20033;-71
2022/12/03 09:24:18;;;;;;;39.80;21.63;;;4.60;99.90;;;;;;5058833;28;20305;-70
2022/12/03 09:26:44;;;;;;;43.17;22.15;;;4.40;99.90;;;;;;5057928;28;20036;-70
2022/12/03 09:29:10;;;;;;;43.53;22.10;;;4.30;99.90;;;;;;5041455;28;20054;-70
2022/12/03 09:31:37;;;;;;;39.00;21.85;;;4.30;99.90;;;;;;5058405;28;20148;-70
2022/12/03 09:34:03;;;;;;;39.65;21.70;;;4.40;99.90;;;;;;5058689;28;20097;-72
2022/12/03 09:36:29;;;;;;;40.28;21.98;;;4.60;99.90;;;;;;5058681;28;20060;-72
2022/12/03 09:38:55;;;;;;;39.22;22.17;;;4.80;99.90;;;;;;5057764;28;20063;-69
2022/12/03 09:41:22;;;;;;;43.22;23.13;;;4.90;99.90;;;;;;5041168;28;20036;-71
2022/12/03 09:43:49;;;;;;;41.15;22.23;;;4.90;99.90;;;;;;5058422;28;20360;-71
2022/12/03 09:46:15;;;;;;;41.35;22.73;;;4.80;99.90;;;;;;5057557;28;20057;-71
2022/12/03 09:48:41;;;;;;;39.47;22.52;;;4.80;99.90;;;;;;5058224;28;20040;-71
2022/12/03 09:51:09;;;;;;;41.38;22.70;;;4.80;99.90;;;;;;5041204;28;20120;-71
2022/12/03 09:53:36;;;;;;;40.58;22.13;;;4.80;99.90;;;;;;5040904;28;20024;-70
2022/12/03 09:56:03;;;;;;;41.92;23.73;;;4.90;99.90;;;;;;5057407;28;20036;-70
2022/12/03 09:58:29;;;;;;;40.92;23.42;;;5.00;99.90;;;;;;5056749;28;20030;-71
2022/12/03 10:00:56;;;;;;;41.45;23.52;;;4.90;99.90;;;;;;5056679;28;20095;-71
2022/12/03 10:03:26;;;;;;;40.33;22.45;;;5.10;99.90;;;;;;5057213;28;20036;-71
2022/12/03 10:05:53;;;;;;;46.47;24.52;;;4.90;99.90;;;;;;5057984;28;20033;-71
2022/12/03 10:08:21;;;;;;;39.88;23.25;;;4.90;99.90;;;;;;5057252;28;20052;-73
2022/12/03 10:10:51;;;;;;;44.70;23.15;;;4.70;99.90;;;;;;5057127;28;20033;-71
2022/12/03 10:13:27;;;;;;;43.45;23.50;;;4.60;99.90;;;;;;5058355;28;20443;-71
2022/12/03 10:15:56;;;;;;;40.88;22.80;;;4.60;99.90;;;;;;5057580;28;20025;-71
2022/12/03 10:18:28;;;;;;;46.15;24.35;;;4.60;99.90;;;;;;5057466;28;20288;-71
2022/12/03 10:20:55;;;;;;;45.88;24.10;;;4.70;99.90;;;;;;5057391;28;20029;-71
2022/12/03 10:23:23;;;;;;;46.13;24.00;;;4.60;99.90;;;;;;5057117;28;20067;-72
2022/12/03 10:25:58;;;;;;;45.47;24.42;;;4.60;99.90;;;;;;5057792;28;20028;-72
2022/12/03 10:28:45;;;;;;;43.38;24.27;;;4.70;99.90;;;;;;5040450;28;20052;-73
2022/12/03 10:31:12;;;;;;;47.10;24.88;;;4.90;99.90;;;;;;5056920;28;20397;-72
2022/12/03 10:33:44;;;;;;;47.95;25.35;;;4.60;99.90;;;;;;5057724;28;20025;-73
2022/12/03 10:36:19;;;;;;;48.05;25.50;;;4.70;99.90;;;;;;5058655;28;20029;-72
2022/12/03 10:39:04;;;;;;;43.17;24.75;;;4.70;99.90;;;;;;5057827;28;20040;-71
2022/12/03 10:41:29;;;;;;;46.25;23.90;;;4.70;99.90;;;;;;5057714;28;20040;-71
2022/12/03 10:44:17;;;;;;;45.55;23.60;;;4.80;99.90;;;;;;5040384;28;20226;-71
2022/12/03 10:46:45;;;;;;;46.45;23.38;;;4.70;99.90;;;;;;5057385;28;20021;-73
2022/12/03 10:49:17;;;;;;;45.05;24.60;;;4.60;99.90;;;;;;5057126;28;20032;-72
2022/12/03 10:51:47;;;;;;;41.58;23.08;;;4.60;99.90;;;;;;5056634;28;20055;-73
2022/12/03 10:54:21;;;;;;;42.58;24.63;;;4.50;99.90;;;;;;5057584;28;20035;-72
2022/12/03 10:56:49;;;;;;;42.10;23.30;;;4.60;99.90;;;;;;5057144;28;20064;-73
2022/12/03 10:59:24;;;;;;;42.38;21.45;;;4.70;99.90;;;;;;5039800;28;20040;-72
2022/12/03 11:01:51;;;;;;;43.42;23.30;;;4.60;99.90;;;;;;5039647;28;20051;-73
2022/12/03 11:04:27;;;;;;;43.95;23.30;;;4.60;99.90;;;;;;5057640;28;20032;-73
2022/12/03 11:06:54;;;;;;;39.33;22.30;;;4.80;99.90;;;;;;5057595;28;20068;-71
2022/12/03 11:09:29;;;;;;;39.75;23.02;;;5.00;99.90;;;;;;5056696;28;20060;-71
2022/12/03 11:12:03;;;;;;;41.88;22.00;;;5.00;99.90;;;;;;5057064;28;20420;-72
2022/12/03 11:14:49;;;;;;;38.85;22.52;;;5.20;99.90;;;;;;5057139;28;20032;-73
2022/12/03 11:17:41;;;;;;;37.92;21.73;;;5.00;99.90;;;;;;5058251;28;20385;-72
2022/12/03 11:20:11;;;;;;;39.33;22.20;;;4.90;99.90;;;;;;5056329;28;20044;-72
2022/12/03 11:22:41;;;;;;;41.42;21.27;;;5.10;99.90;;;;;;5057316;28;20052;-71
2022/12/03 11:25:28;;;;;;;35.95;21.13;;;5.20;99.90;;;;;;5057791;28;20106;-72
2022/12/03 11:28:26;;;;;;;38.65;21.45;;;5.00;99.90;;;;;;5056902;28;20036;-73
2022/12/03 11:30:52;;;;;;;39.92;20.85;;;4.90;99.90;;;;;;5034230;28;20131;-68
2022/12/03 11:33:24;;;;;;;35.78;19.77;;;5.10;99.90;;;;;;5057046;28;20506;-69
2022/12/03 11:36:18;;;;;;;35.70;19.30;;;5.10;99.90;;;;;;5056839;28;20039;-68
2022/12/03 11:38:47;;;;;;;34.63;19.23;;;5.10;99.90;;;;;;5054705;28;20297;-69
2022/12/03 11:41:33;;;;;;;38.13;20.33;;;4.90;99.90;;;;;;5039237;28;20124;-69
2022/12/03 11:44:21;;;;;;;37.17;19.85;;;4.90;99.90;;;;;;5056732;28;20033;-69
2022/12/03 11:46:46;;;;;;;39.05;20.70;;;4.90;99.90;;;;;;5056397;28;20085;-69
2022/12/03 11:49:37;;;;;;;35.78;19.50;;;5.00;99.90;;;;;;5055847;28;20040;-69
2022/12/03 11:52:19;;;;;;;35.50;20.33;;;5.00;99.90;;;;;;5055774;28;20044;-69
2022/12/03 11:54:49;;;;;;;35.20;19.08;;;5.10;99.90;;;;;;5056133;28;20093;-68
2022/12/03 11:57:39;;;;;;;36.80;20.45;;;4.90;99.90;;;;;;5056531;28;20025;-68
2022/12/03 12:00:16;;;;;;;35.42;19.75;;;4.90;99.90;;;;;;5050525;28;20049;-69
2022/12/03 12:02:42;;;;;;;34.92;19.88;;;5.10;99.90;;;;;;5056522;28;20025;-69
2022/12/03 12:05:21;;;;;;;35.40;19.40;;;5.20;99.90;;;;;;5038970;28;20055;-69
2022/12/03 12:07:47;;;;;;;34.80;19.70;;;5.10;99.90;;;;;;5056894;28;20033;-68
2022/12/03 12:10:33;;;;;;;38.28;20.52;;;5.00;99.90;;;;;;5056384;28;20286;-68
2022/12/03 12:12:58;;;;;;;36.08;19.55;;;5.00;99.90;;;;;;5055664;28;20091;-69
2022/12/03 12:15:37;;;;;;;34.72;19.60;;;5.00;99.90;;;;;;5022839;28;20312;-69
2022/12/03 12:18:34;;;;;;;36.78;20.42;;;4.90;99.90;;;;;;5056506;28;20102;-69
2022/12/03 12:21:38;;;;;;;38.22;20.08;;;5.00;99.90;;;;;;5056623;28;20044;-68
2022/12/03 12:24:26;;;;;;;33.92;19.15;;;5.20;99.90;;;;;;5059656;28;20035;-68
2022/12/03 12:26:53;;;;;;;32.13;18.20;;;5.20;99.90;;;;;;5059545;28;20372;-68
2022/12/03 12:29:19;;;;;;;32.47;18.65;;;5.30;99.90;;;;;;5059905;28;20028;-68
2022/12/03 12:31:45;;;;;;;30.50;17.55;;;5.10;99.90;;;;;;5059632;28;20458;-68
2022/12/03 12:34:11;;;;;;;31.42;18.42;;;4.90;99.90;;;;;;5059907;28;20086;-70
2022/12/03 12:36:38;;;;;;;31.88;19.10;;;4.90;99.90;;;;;;5060086;28;20102;-69
2022/12/03 12:39:12;;;;;;;33.33;19.55;;;4.90;99.90;;;;;;5042324;28;20337;-69
2022/12/03 12:41:40;;;;;;;34.80;19.80;;;5.10;99.90;;;;;;5059357;28;20107;-68
2022/12/03 12:44:11;;;;;;;31.90;18.75;;;4.90;99.90;;;;;;5059042;28;20052;-70
2022/12/03 12:46:37;;;;;;;33.05;19.10;;;4.70;99.90;;;;;;5042315;28;20108;-69
2022/12/03 12:49:10;;;;;;;33.85;19.17;;;4.70;99.90;;;;;;5058644;28;20157;-69
2022/12/03 12:51:36;;;;;;;;;;;4.80;99.90;;;;;;5059700;28;20109;-69
2022/12/03 12:54:09;;;;;;;31.65;18.25;;;4.90;99.90;;;;;;5058653;28;19917;-70
2022/12/03 12:56:35;;;;;;;33.88;18.98;;;4.60;99.90;;;;;;5059225;28;20053;-71
2022/12/03 12:59:09;;;;;;;37.63;20.92;;;4.70;99.90;;;;;;5058305;28;20110;-69
2022/12/03 13:01:35;;;;;;;31.23;18.02;;;4.70;99.90;;;;;;5058246;28;20416;-69
2022/12/03 13:04:10;;;;;;;36.15;19.70;;;4.60;99.90;;;;;;5059300;28;20112;-69
2022/12/03 13:06:36;;;;;;;33.10;19.27;;;4.70;99.90;;;;;;5058134;28;20044;-69